Time;durP1;ratioP1;P1;durP2;ratioP2;P2;SDS_P1;SDS_P2;PMS_P1;PMS_P2;Temp;Humidity;BMP_temperature;BMP_pressure;BME280_temperature;BME280_humidity;BME280_pressure;Samples;Min_cycle;Max_cycle;Signal;HPM_P1;HPM_P2
2023/05/16 00:01:46;;;;;;;9.30;8.50;;;9.80;99.90;;;10.68;97.18;97603.91;5164467;28;20222;-62
2023/05/16 00:04:20;;;;;;;7.90;7.30;;;9.80;99.90;;;10.70;96.51;97599.72;5163577;28;20694;-63
2023/05/16 00:06:54;;;;;;;9.10;8.15;;;9.80;99.90;;;10.66;97.09;97595.28;5162570;28;20227;-62
2023/05/16 00:09:27;;;;;;;8.23;7.53;;;9.80;99.90;;;10.60;97.54;97591.59;5164041;28;20226;-63
2023/05/16 00:12:00;;;;;;;8.55;7.85;;;9.70;99.90;;;10.55;97.53;97593.03;5166939;28;20219;-63
2023/05/16 00:14:35;;;;;;;9.05;8.35;;;9.70;99.90;;;10.52;97.40;97597.09;5143316;28;20223;-62
2023/05/16 00:17:10;;;;;;;8.77;7.85;;;9.60;99.90;;;10.51;97.04;97591.13;5159463;28;20231;-63
2023/05/16 00:19:46;;;;;;;8.48;7.75;;;9.60;99.90;;;10.50;97.68;97591.00;5161093;28;20708;-62
2023/05/16 00:22:20;;;;;;;9.02;8.23;;;9.60;99.90;;;10.55;97.83;97595.56;5162896;28;20660;-63
2023/05/16 00:24:53;;;;;;;9.20;8.50;;;9.60;99.90;;;10.49;97.03;97586.72;5168032;28;20238;-62
2023/05/16 00:27:26;;;;;;;8.25;7.53;;;9.50;99.90;;;10.48;96.82;97584.97;5163156;28;20229;-63
2023/05/16 00:30:00;;;;;;;8.98;8.18;;;9.50;99.90;;;10.46;96.81;97582.31;5161402;28;20239;-63
2023/05/16 00:32:33;;;;;;;8.70;7.90;;;9.50;99.90;;;10.40;97.48;97576.00;5164926;28;20233;-63
2023/05/16 00:35:09;;;;;;;8.20;7.60;;;9.50;99.90;;;10.38;97.01;97576.78;5163066;28;20231;-63
2023/05/16 00:37:43;;;;;;;8.87;8.20;;;9.50;99.90;;;10.30;96.83;97577.19;5161909;28;20238;-61
2023/05/16 00:40:17;;;;;;;8.73;7.85;;;9.40;99.90;;;10.26;96.91;97578.66;5161564;28;20235;-62
2023/05/16 00:42:50;;;;;;;9.10;8.30;;;9.30;99.90;;;10.14;96.67;97590.78;5159593;28;20585;-63
2023/05/16 00:45:23;;;;;;;9.57;8.77;;;9.20;99.90;;;10.10;97.66;97593.94;5158775;28;20241;-62
2023/05/16 00:47:56;;;;;;;9.03;8.33;;;9.20;99.90;;;10.02;97.94;97595.25;5163542;28;20237;-62
2023/05/16 00:50:30;;;;;;;8.48;7.78;;;9.10;99.90;;;10.00;98.20;97584.94;5166209;28;20617;-63
2023/05/16 00:53:04;;;;;;;9.03;8.33;;;9.10;99.90;;;10.01;98.16;97579.00;5158879;28;20222;-63
2023/05/16 00:55:38;;;;;;;9.10;8.40;;;9.20;99.90;;;10.01;98.35;97575.59;5162395;28;20229;-62
2023/05/16 00:58:12;;;;;;;9.77;8.97;;;9.20;99.90;;;10.03;97.66;97579.13;5165245;28;20227;-63
2023/05/16 01:00:46;;;;;;;9.53;8.77;;;9.20;99.90;;;9.98;98.44;97566.09;5160087;28;20227;-63
2023/05/16 01:03:21;;;;;;;9.17;8.47;;;9.10;99.90;;;9.99;98.32;97572.97;5160389;28;20595;-63
2023/05/16 01:05:55;;;;;;;10.67;9.90;;;9.10;99.90;;;9.88;99.67;97569.81;5163448;28;20226;-63
2023/05/16 01:08:29;;;;;;;9.57;8.80;;;9.00;99.90;;;9.85;98.82;97577.31;5161479;28;20227;-62
2023/05/16 01:11:12;;;;;;;9.80;9.00;;;9.00;99.90;;;9.74;99.31;97569.84;5166405;28;20229;-62
2023/05/16 01:13:56;;;;;;;9.97;9.17;;;8.90;99.90;;;9.76;99.38;97574.25;5160784;28;20229;-63
2023/05/16 01:16:39;;;;;;;10.23;9.23;;;8.90;99.90;;;9.77;99.30;97576.00;5159666;28;20614;-62
2023/05/16 01:19:26;;;;;;;9.00;8.40;;;8.90;99.90;;;9.77;99.43;97570.91;5163465;28;20231;-63
2023/05/16 01:22:06;;;;;;;9.17;8.37;;;8.90;99.90;;;9.78;98.79;97570.09;5166366;28;20262;-63
2023/05/16 01:24:51;;;;;;;9.60;8.80;;;8.90;99.90;;;9.76;99.12;97576.81;5163061;28;20706;-62
2023/05/16 01:27:28;;;;;;;9.90;9.00;;;8.90;99.90;;;9.76;99.08;97569.16;5166886;28;20226;-63
2023/05/16 01:30:13;;;;;;;9.50;8.70;;;8.90;99.90;;;9.78;99.14;97575.19;5157685;28;20230;-62
2023/05/16 01:32:46;;;;;;;9.20;8.43;;;8.90;99.90;;;9.78;98.78;97577.75;5140830;28;20230;-63
2023/05/16 01:35:20;;;;;;;9.80;9.00;;;8.90;99.90;;;9.73;99.59;97574.09;5139957;28;20345;-62
2023/05/16 01:38:10;;;;;;;9.20;8.50;;;8.90;99.90;;;9.71;99.34;97570.56;5139502;28;20226;-63
2023/05/16 01:40:52;;;;;;;9.83;9.00;;;8.80;99.90;;;9.68;98.64;97580.59;5165453;28;20323;-63
2023/05/16 01:43:34;;;;;;;10.00;9.10;;;8.80;99.90;;;9.63;99.25;97577.78;5156638;28;20219;-62
2023/05/16 01:46:11;;;;;;;9.80;8.90;;;8.80;99.90;;;9.52;98.29;97577.97;5160734;28;20227;-63
2023/05/16 01:48:53;;;;;;;10.30;9.30;;;8.60;99.90;;;9.41;99.03;97575.72;5161378;28;20277;-62
2023/05/16 01:51:30;;;;;;;10.00;9.20;;;8.60;99.90;;;9.44;99.36;97581.00;5165901;28;20228;-63
2023/05/16 01:54:08;;;;;;;10.27;9.50;;;8.60;99.90;;;9.34;100.00;97573.59;5160048;28;20346;-63
2023/05/16 01:56:52;;;;;;;9.73;9.03;;;8.60;99.90;;;9.45;99.40;97567.44;5159762;28;20221;-63
2023/05/16 01:59:28;;;;;;;10.47;9.60;;;8.60;99.90;;;9.48;99.49;97575.25;5155557;28;20223;-61
2023/05/16 02:02:02;;;;;;;10.20;9.17;;;8.70;99.90;;;9.53;99.67;97572.97;5161832;28;20222;-64
2023/05/16 02:04:35;;;;;;;9.87;9.10;;;8.70;99.90;;;9.57;100.00;97577.44;5157098;28;20219;-64
2023/05/16 02:07:08;;;;;;;9.73;8.93;;;8.70;99.90;;;9.61;100.00;97576.81;5161926;28;20227;-63
2023/05/16 02:09:41;;;;;;;10.10;9.30;;;8.70;99.90;;;9.76;99.10;97581.91;5160787;28;20219;-64
2023/05/16 02:12:14;;;;;;;9.70;8.90;;;8.80;99.90;;;9.74;99.09;97587.72;5157972;28;20231;-63
2023/05/16 02:14:48;;;;;;;9.47;8.67;;;8.80;99.90;;;9.73;99.12;97586.84;5159738;28;20244;-63
2023/05/16 02:17:21;;;;;;;9.23;8.53;;;8.80;99.90;;;9.79;98.69;97588.88;5162196;28;20564;-64
2023/05/16 02:19:54;;;;;;;8.33;7.73;;;8.80;99.90;;;9.80;98.13;97586.38;5157219;28;20222;-63
2023/05/16 02:22:27;;;;;;;9.50;8.70;;;8.80;99.90;;;9.76;97.67;97587.03;5159450;28;20227;-63
2023/05/16 02:25:02;;;;;;;9.07;8.37;;;8.80;99.90;;;9.67;97.92;97586.47;5164183;28;20240;-63
2023/05/16 02:27:35;;;;;;;9.00;8.27;;;8.80;99.90;;;9.61;98.33;97593.78;5163075;28;20229;-62
2023/05/16 02:30:11;;;;;;;10.87;9.90;;;8.80;99.90;;;9.62;98.29;97585.38;5156105;28;20242;-63
2023/05/16 02:32:44;;;;;;;8.97;8.17;;;8.70;99.90;;;9.63;98.59;97588.00;5159509;28;20222;-63
2023/05/16 02:35:17;;;;;;;9.53;8.77;;;8.80;99.90;;;9.64;98.62;97591.41;5159711;28;20262;-63
2023/05/16 02:37:50;;;;;;;9.87;9.07;;;8.80;99.90;;;9.70;98.52;97586.69;5163364;28;20273;-63
2023/05/16 02:40:23;;;;;;;10.77;9.70;;;8.80;99.90;;;9.66;98.79;97587.28;5159495;28;20254;-61
2023/05/16 02:42:56;;;;;;;9.67;8.97;;;8.80;99.90;;;9.62;99.26;97580.25;5161678;28;20222;-63
2023/05/16 02:45:31;;;;;;;9.80;9.10;;;8.80;99.90;;;9.61;99.62;97581.91;5157349;28;20246;-63
2023/05/16 02:48:05;;;;;;;9.93;9.13;;;8.80;99.90;;;9.64;99.97;97583.75;5152199;28;20231;-63
2023/05/16 02:50:39;;;;;;;10.60;9.60;;;8.80;99.90;;;9.68;98.80;97580.59;5159969;28;20238;-63
2023/05/16 02:53:12;;;;;;;10.53;9.67;;;8.80;99.90;;;9.68;99.09;97581.47;5160925;28;20648;-61
2023/05/16 02:55:45;;;;;;;9.93;9.13;;;8.80;99.90;;;9.64;98.22;97588.88;5159494;28;20604;-63
2023/05/16 02:58:18;;;;;;;9.77;8.93;;;8.80;99.90;;;9.58;98.96;97583.41;5161311;28;20222;-64
2023/05/16 03:00:53;;;;;;;10.37;9.40;;;8.70;99.90;;;9.59;98.79;97590.31;5156696;28;20233;-63
2023/05/16 03:03:26;;;;;;;10.43;9.63;;;8.70;99.90;;;9.56;99.08;97587.59;5158472;28;20228;-62
2023/05/16 03:05:59;;;;;;;9.70;9.00;;;8.70;99.90;;;9.57;99.01;97596.97;5159536;28;20250;-61
2023/05/16 03:08:32;;;;;;;10.83;9.93;;;8.70;99.90;;;9.54;99.34;97592.59;5158958;28;20223;-63
2023/05/16 03:11:05;;;;;;;10.77;9.83;;;8.70;99.90;;;9.40;99.32;97596.91;5161835;28;20707;-62
2023/05/16 03:13:38;;;;;;;10.00;9.10;;;8.50;99.90;;;9.36;100.00;97594.09;5160998;28;20314;-64
2023/05/16 03:16:13;;;;;;;10.03;9.23;;;8.50;99.90;;;9.24;100.00;97591.69;5159572;28;20314;-61
2023/05/16 03:18:46;;;;;;;9.83;9.03;;;8.40;99.90;;;9.22;100.00;97598.41;5158608;28;20245;-62
2023/05/16 03:21:19;;;;;;;10.37;9.57;;;8.40;99.90;;;9.25;100.00;97593.47;5163658;28;20257;-64
2023/05/16 03:23:53;;;;;;;11.03;10.00;;;8.40;99.90;;;9.20;100.00;97588.09;5163764;28;20223;-62
2023/05/16 03:26:26;;;;;;;10.17;9.17;;;8.40;99.90;;;9.25;100.00;97593.47;5160340;28;20242;-63
2023/05/16 03:28:59;;;;;;;10.20;9.33;;;8.40;99.90;;;9.27;100.00;97601.19;5158230;28;20715;-63
2023/05/16 03:31:34;;;;;;;9.80;9.00;;;8.50;99.90;;;9.29;100.00;97603.06;5156888;28;20602;-62
2023/05/16 03:34:07;;;;;;;10.03;9.23;;;8.50;99.90;;;9.33;100.00;97599.91;5154719;28;20605;-64
2023/05/16 03:36:42;;;;;;;10.47;9.57;;;8.50;99.90;;;9.36;100.00;97597.53;5162459;28;20442;-63
2023/05/16 03:39:15;;;;;;;10.87;9.97;;;8.50;99.90;;;9.39;100.00;97607.03;5162927;28;20718;-63
2023/05/16 03:41:48;;;;;;;9.93;9.03;;;8.50;99.90;;;9.36;100.00;97602.63;5156632;28;20226;-63
2023/05/16 03:44:21;;;;;;;10.70;9.80;;;8.50;99.90;;;9.43;99.66;97607.28;5162919;28;20778;-63
2023/05/16 03:46:56;;;;;;;9.73;8.97;;;8.50;99.90;;;9.34;99.64;97610.97;5159782;28;20600;-63
2023/05/16 03:49:29;;;;;;;10.23;9.33;;;8.50;99.90;;;9.28;99.96;97602.97;5157819;28;20240;-64
2023/05/16 03:52:02;;;;;;;10.03;9.23;;;8.40;99.90;;;9.11;99.90;97602.00;5157150;28;20227;-66
2023/05/16 03:54:35;;;;;;;9.70;8.90;;;8.20;99.90;;;9.07;100.00;97602.59;5163175;28;20230;-64
2023/05/16 03:57:08;;;;;;;10.00;9.30;;;8.20;99.90;;;9.03;100.00;97610.06;5160876;28;20231;-63
2023/05/16 03:59:41;;;;;;;11.07;9.97;;;8.20;99.90;;;9.06;100.00;97611.03;5159614;28;20241;-63
2023/05/16 04:02:16;;;;;;;10.97;10.07;;;8.20;99.90;;;8.97;100.00;97611.38;5153772;28;20223;-62
2023/05/16 04:04:51;;;;;;;11.07;10.03;;;8.20;99.90;;;8.92;100.00;97608.53;5161040;28;20707;-63
2023/05/16 04:07:24;;;;;;;10.83;9.93;;;8.20;99.90;;;9.07;100.00;97603.50;5158299;28;20219;-63
2023/05/16 04:09:57;;;;;;;11.03;10.03;;;8.30;99.90;;;9.20;100.00;97605.06;5160436;28;20226;-63
2023/05/16 04:12:30;;;;;;;10.83;10.00;;;8.40;99.90;;;9.23;100.00;97605.25;5153917;28;20233;-61
2023/05/16 04:15:05;;;;;;;11.50;10.50;;;8.40;99.90;;;9.32;100.00;97615.09;5160766;28;20227;-62
2023/05/16 04:17:39;;;;;;;12.43;11.30;;;8.50;99.90;;;9.40;100.00;97613.88;5160426;28;20218;-63
2023/05/16 04:20:13;;;;;;;11.70;10.67;;;8.60;99.90;;;9.47;100.00;97613.41;5160325;28;20237;-62
2023/05/16 04:22:47;;;;;;;11.37;10.37;;;8.70;99.90;;;9.55;100.00;97617.28;5166171;28;20225;-63
2023/05/16 04:25:20;;;;;;;11.10;10.17;;;8.70;99.90;;;9.64;100.00;97617.84;5157485;28;20219;-63
2023/05/16 04:27:53;;;;;;;11.63;10.63;;;8.80;99.90;;;9.86;99.97;97608.81;5162296;28;20319;-63
2023/05/16 04:30:26;;;;;;;11.00;10.20;;;8.90;99.90;;;9.93;99.50;97608.38;5160151;28;20243;-62
2023/05/16 04:33:00;;;;;;;10.97;10.07;;;9.00;99.90;;;9.98;100.00;97611.16;5164626;28;20232;-64
2023/05/16 04:35:34;;;;;;;11.73;10.73;;;9.00;99.90;;;10.01;100.00;97607.09;5160332;28;20293;-61
2023/05/16 04:38:07;;;;;;;11.47;10.40;;;9.10;99.90;;;10.11;98.60;97608.50;5161772;28;20229;-63
2023/05/16 04:40:41;;;;;;;11.80;10.80;;;9.10;99.90;;;10.06;98.46;97609.91;5167542;28;20226;-64
2023/05/16 04:43:14;;;;;;;12.43;11.37;;;9.20;99.90;;;10.02;99.51;97615.66;5163161;28;20222;-63
2023/05/16 04:45:47;;;;;;;11.80;10.83;;;9.20;99.90;;;10.07;99.70;97615.13;5163156;28;20214;-62
2023/05/16 04:48:21;;;;;;;11.47;10.50;;;9.20;99.90;;;10.14;99.23;97613.78;5161564;28;20233;-64
2023/05/16 04:50:54;;;;;;;10.60;9.80;;;9.30;99.90;;;10.18;99.03;97620.78;5162871;28;20333;-64
2023/05/16 04:53:27;;;;;;;12.32;11.23;;;9.30;99.90;;;10.12;99.97;97628.13;5164807;28;20222;-62
2023/05/16 04:56:00;;;;;;;12.50;11.50;;;9.20;99.90;;;10.19;99.84;97626.78;5163601;28;20718;-63
2023/05/16 04:58:33;;;;;;;13.33;12.13;;;9.30;99.90;;;10.26;99.29;97624.66;5157401;28;20222;-62
2023/05/16 05:01:06;;;;;;;12.93;11.82;;;9.40;99.90;;;10.33;100.00;97631.00;5162473;28;20723;-63
2023/05/16 05:03:41;;;;;;;13.83;12.73;;;9.50;99.90;;;10.40;99.21;97627.13;5167429;28;20657;-62
2023/05/16 05:06:14;;;;;;;15.03;13.77;;;9.50;99.90;;;10.46;100.00;97627.44;5159845;28;20226;-63
2023/05/16 05:08:47;;;;;;;15.68;14.32;;;9.60;99.90;;;10.51;100.00;97620.91;5163589;28;20225;-63
2023/05/16 05:11:20;;;;;;;15.63;14.30;;;9.70;99.90;;;10.60;99.87;97626.50;5161824;28;20222;-63
2023/05/16 05:13:53;;;;;;;16.40;14.77;;;9.80;99.90;;;10.70;100.00;97630.41;5165209;28;20721;-63
2023/05/16 05:16:26;;;;;;;15.48;14.13;;;9.80;99.90;;;10.79;99.29;97631.78;5159486;28;20234;-62
2023/05/16 05:19:00;;;;;;;15.48;14.15;;;9.90;99.90;;;10.95;98.41;97627.47;5172369;28;20238;-62
2023/05/16 05:21:34;;;;;;;16.40;14.90;;;10.00;99.90;;;10.94;99.17;97624.03;5164515;28;20250;-63
2023/05/16 05:24:07;;;;;;;17.10;15.48;;;10.10;99.90;;;11.04;98.04;97621.16;5162638;28;20230;-63
2023/05/16 05:26:40;;;;;;;15.20;13.80;;;10.10;99.90;;;11.05;99.11;97622.91;5163405;28;20236;-64
2023/05/16 05:29:13;;;;;;;15.52;14.07;;;10.20;99.90;;;11.14;98.83;97622.50;5164211;28;20231;-63
2023/05/16 05:31:46;;;;;;;15.45;13.95;;;10.30;99.90;;;11.20;99.23;97629.59;5159866;28;20219;-64
2023/05/16 05:34:20;;;;;;;15.63;14.18;;;10.30;99.90;;;11.30;99.11;97636.03;5160595;28;20726;-62
2023/05/16 05:36:54;;;;;;;15.10;13.70;;;10.40;99.90;;;11.40;99.01;97634.03;5160693;28;20226;-63
2023/05/16 05:39:27;;;;;;;15.93;14.32;;;10.50;99.90;;;11.51;98.43;97634.56;5161212;28;20227;-63
2023/05/16 05:42:02;;;;;;;16.13;14.75;;;10.50;99.90;;;11.55;97.23;97626.22;5161029;28;20227;-64
2023/05/16 05:44:36;;;;;;;15.30;13.98;;;10.60;99.90;;;11.66;97.35;97634.44;5157604;28;20229;-62
2023/05/16 05:47:10;;;;;;;17.48;15.70;;;10.70;99.90;;;11.77;96.94;97628.16;5161144;28;20972;-63
2023/05/16 05:49:44;;;;;;;16.73;15.23;;;10.80;99.90;;;11.88;96.62;97637.28;5161349;28;20243;-61
2023/05/16 05:52:17;;;;;;;17.15;15.55;;;10.80;99.90;;;11.95;96.90;97639.31;5162690;28;20226;-63
2023/05/16 05:54:50;;;;;;;16.42;14.85;;;10.90;99.90;;;11.96;97.21;97635.09;5163934;28;20243;-63
2023/05/16 05:57:23;;;;;;;16.63;14.90;;;11.00;99.90;;;12.00;97.62;97639.56;5160850;28;20223;-63
2023/05/16 05:59:56;;;;;;;18.17;16.27;;;11.00;99.90;;;12.07;97.61;97638.16;5159976;28;20223;-63
2023/05/16 06:02:29;;;;;;;18.52;16.63;;;11.10;99.90;;;12.14;97.54;97643.66;5160615;28;20231;-62
2023/05/16 06:05:05;;;;;;;19.10;17.17;;;11.20;99.90;;;12.28;97.06;97641.75;5161501;28;20641;-63
2023/05/16 06:07:38;;;;;;;19.15;17.25;;;11.30;99.90;;;12.25;97.27;97651.84;5158837;28;20731;-63
2023/05/16 06:10:11;;;;;;;18.23;16.52;;;11.20;99.90;;;12.27;97.53;97657.91;5164416;28;20234;-64
2023/05/16 06:12:44;;;;;;;19.08;17.15;;;11.30;99.90;;;12.29;97.42;97655.44;5161321;28;20226;-63
2023/05/16 06:15:17;;;;;;;19.98;17.98;;;11.30;99.90;;;12.35;97.20;97660.84;5160865;28;20558;-64
2023/05/16 06:17:50;;;;;;;22.02;19.50;;;11.40;99.90;;;12.35;97.17;97658.28;5164667;28;20215;-62
2023/05/16 06:20:25;;;;;;;23.33;20.83;;;11.40;99.90;;;12.27;97.66;97659.59;5158811;28;20779;-63
2023/05/16 06:22:58;;;;;;;23.30;19.88;;;11.30;99.90;;;12.26;99.28;97662.97;5160779;28;20222;-63
2023/05/16 06:25:31;;;;;;;22.38;20.10;;;11.40;99.90;;;12.36;98.76;97665.13;5163101;28;20215;-63
2023/05/16 06:28:04;;;;;;;21.95;19.65;;;11.40;99.90;;;12.37;98.65;97674.59;5161010;28;20227;-60
2023/05/16 06:30:37;;;;;;;22.50;20.15;;;11.40;99.90;;;12.38;99.70;97666.09;5159569;28;20230;-62
2023/05/16 06:33:10;;;;;;;23.20;20.75;;;11.50;99.90;;;12.48;98.70;97668.28;5162302;28;20230;-63
2023/05/16 06:35:45;;;;;;;25.95;23.25;;;11.60;99.90;;;12.53;99.49;97669.41;5160441;28;20223;-62
2023/05/16 06:38:19;;;;;;;26.45;23.75;;;11.60;99.90;;;12.58;99.08;97665.31;5162702;28;20221;-62
2023/05/16 06:40:52;;;;;;;27.08;24.27;;;11.70;99.90;;;12.70;99.24;97664.13;5160357;28;20243;-62
2023/05/16 06:43:25;;;;;;;28.33;25.27;;;11.70;99.90;;;12.80;99.51;97658.63;5160801;28;20226;-62
2023/05/16 06:45:58;;;;;;;29.60;25.98;;;11.80;99.90;;;12.93;98.79;97648.09;5158594;28;20246;-62
2023/05/16 06:48:31;;;;;;;27.58;24.67;;;12.00;99.90;;;13.23;96.91;97637.41;5159023;28;20814;-63
2023/05/16 06:51:06;;;;;;;27.73;24.88;;;12.20;99.90;;;13.27;97.50;97641.91;5161049;28;20234;-62
2023/05/16 06:53:40;;;;;;;27.52;24.63;;;12.20;99.90;;;13.42;96.15;97644.22;5160111;28;20222;-63
2023/05/16 06:56:13;;;;;;;27.50;24.70;;;12.20;99.90;;;13.44;96.20;97648.63;5163194;28;20354;-62
2023/05/16 06:58:48;;;;;;;28.17;25.25;;;12.30;99.90;;;13.35;96.32;97647.38;5161408;28;20327;-63
2023/05/16 07:01:21;;;;;;;27.92;25.10;;;12.40;99.90;;;13.46;96.38;97649.56;5160360;28;20226;-61
2023/05/16 07:03:54;;;;;;;28.88;26.00;;;12.40;99.90;;;13.65;96.24;97652.91;5160839;28;20325;-63
2023/05/16 07:06:29;;;;;;;27.35;24.67;;;12.60;99.90;;;13.74;94.98;97649.03;5158747;28;20246;-62
2023/05/16 07:09:02;;;;;;;27.48;24.67;;;12.70;99.90;;;13.95;94.44;97641.31;5159780;28;20230;-62
2023/05/16 07:11:35;;;;;;;26.33;23.63;;;12.70;99.90;;;13.98;94.11;97654.28;5164728;28;20233;-63
2023/05/16 07:14:08;;;;;;;25.38;22.77;;;12.90;99.90;;;14.08;93.17;97654.66;5162646;28;20735;-63
2023/05/16 07:16:41;;;;;;;26.17;23.63;;;12.90;99.90;;;14.01;93.44;97657.81;5158665;28;20491;-63
2023/05/16 07:19:15;;;;;;;21.80;19.52;;;12.90;99.90;;;13.95;92.98;97667.00;5160421;28;20296;-63
2023/05/16 07:21:49;;;;;;;24.38;22.02;;;12.90;99.90;;;13.92;93.02;97664.31;5160048;28;20920;-63
2023/05/16 07:24:22;;;;;;;21.85;19.65;;;12.90;99.90;;;13.99;91.04;97660.28;5159360;28;20242;-62
2023/05/16 07:26:55;;;;;;;22.13;19.95;;;13.00;99.90;;;13.77;90.12;97667.97;5159935;28;20231;-63
2023/05/16 07:29:29;;;;;;;20.55;18.55;;;12.90;99.90;;;13.65;89.75;97669.22;5163003;28;20975;-63
2023/05/16 07:32:02;;;;;;;19.80;17.83;;;12.80;99.90;;;13.68;89.13;97669.34;5159955;28;20235;-62
2023/05/16 07:34:35;;;;;;;17.80;16.23;;;12.80;99.90;;;13.65;89.09;97666.66;5161839;28;20418;-62
2023/05/16 07:37:11;;;;;;;20.42;18.48;;;12.80;99.90;;;13.65;88.14;97669.22;5162691;28;20299;-63
2023/05/16 07:39:44;;;;;;;17.58;16.00;;;12.90;99.90;;;13.68;88.71;97674.47;5160840;28;20706;-63
2023/05/16 07:42:17;;;;;;;19.30;17.40;;;12.80;99.90;;;13.66;88.29;97672.66;5161761;28;20293;-62
2023/05/16 07:44:51;;;;;;;17.08;15.48;;;12.90;99.90;;;13.68;88.73;97671.03;5160364;28;20238;-63
2023/05/16 07:47:24;;;;;;;18.73;17.02;;;12.90;99.90;;;13.87;86.42;97670.97;5163318;28;20227;-62
2023/05/16 07:49:57;;;;;;;17.85;16.23;;;13.00;99.90;;;13.82;85.25;97674.16;5163959;28;20223;-63
2023/05/16 07:52:31;;;;;;;18.10;16.50;;;13.00;99.90;;;13.80;85.96;97676.69;5162948;28;20251;-61
2023/05/16 07:55:06;;;;;;;16.40;14.90;;;13.00;99.90;;;13.88;85.88;97672.72;5164642;28;20318;-61
2023/05/16 07:57:39;;;;;;;18.80;16.95;;;13.10;99.90;;;13.97;85.41;97673.09;5162292;28;20223;-63
2023/05/16 08:00:14;;;;;;;18.13;16.38;;;13.20;99.90;;;14.09;85.32;97674.41;5162935;28;20770;-63
2023/05/16 08:02:47;;;;;;;17.63;15.98;;;13.20;99.90;;;14.35;83.97;97678.00;5165115;28;20711;-64
2023/05/16 08:05:20;;;;;;;19.35;17.55;;;13.40;99.90;;;14.35;83.13;97671.16;5163075;28;20235;-63
2023/05/16 08:07:55;;;;;;;16.08;14.48;;;13.50;99.90;;;14.43;83.03;97681.75;5163726;28;20326;-63
2023/05/16 08:10:28;;;;;;;16.95;15.43;;;13.60;99.90;;;14.43;82.45;97677.50;5165261;28;20234;-62
2023/05/16 08:13:01;;;;;;;17.02;15.35;;;13.60;99.90;;;14.40;82.70;97679.06;5163780;28;20243;-63
2023/05/16 08:15:34;;;;;;;15.05;13.65;;;13.60;99.90;;;14.47;83.61;97675.91;5163008;28;20219;-62
2023/05/16 08:18:14;;;;;;;17.10;15.40;;;13.70;99.90;;;14.57;83.28;97680.63;5162380;28;20235;-63
2023/05/16 08:20:47;;;;;;;18.17;16.58;;;13.70;99.90;;;14.36;82.49;97677.19;5164134;28;20346;-63
2023/05/16 08:23:21;;;;;;;16.38;14.88;;;13.60;99.90;;;14.49;82.00;97679.44;5162734;28;20822;-63
2023/05/16 08:25:54;;;;;;;16.55;15.05;;;13.60;99.90;;;14.50;83.07;97680.31;5164299;28;20222;-63
2023/05/16 08:28:27;;;;;;;17.40;15.95;;;13.60;99.90;;;14.48;83.08;97679.34;5163423;28;20277;-63
2023/05/16 08:31:01;;;;;;;17.20;15.60;;;13.60;99.90;;;14.41;83.00;97680.81;5163251;28;20660;-63
2023/05/16 08:33:34;;;;;;;16.50;14.90;;;13.60;99.90;;;14.57;81.18;97688.34;5163470;28;20730;-64
2023/05/16 08:36:09;;;;;;;13.88;12.75;;;13.60;99.90;;;14.53;81.67;97686.47;5162181;28;20223;-64
2023/05/16 08:38:44;;;;;;;16.85;15.32;;;13.70;99.90;;;14.54;80.74;97695.09;5163209;28;20312;-63
2023/05/16 08:41:17;;;;;;;15.60;14.27;;;13.70;99.90;;;14.58;81.42;97699.53;5163512;28;20226;-63
2023/05/16 08:43:50;;;;;;;15.75;14.35;;;13.70;99.90;;;14.51;81.76;97695.81;5162839;28;20230;-63
2023/05/16 08:46:24;;;;;;;15.77;14.18;;;13.80;99.90;;;14.36;80.16;97703.78;5159169;28;20248;-63
2023/05/16 08:49:00;;;;;;;15.43;13.93;;;13.60;99.90;;;14.34;80.77;97701.97;5162514;28;20919;-63
2023/05/16 08:51:35;;;;;;;15.40;13.90;;;13.50;99.90;;;14.30;81.31;97702.66;5165191;28;20246;-63
2023/05/16 08:54:13;;;;;;;14.32;13.07;;;13.50;99.90;;;14.39;81.19;97696.22;5161836;28;20314;-63
2023/05/16 08:56:49;;;;;;;14.95;13.60;;;13.60;99.90;;;14.42;80.52;97696.31;5162531;28;20223;-62
2023/05/16 08:59:22;;;;;;;14.05;12.70;;;13.70;99.90;;;14.48;79.20;97705.06;5163115;28;20288;-63
2023/05/16 09:01:55;;;;;;;13.93;12.63;;;13.70;99.90;;;14.53;79.17;97695.88;5165032;28;20663;-63
2023/05/16 09:04:29;;;;;;;13.07;11.98;;;13.80;99.90;;;14.52;77.93;97701.84;5161807;28;20226;-62
2023/05/16 09:07:02;;;;;;;12.38;11.27;;;13.80;99.90;;;14.65;79.01;97706.66;5161527;28;20223;-63
2023/05/16 09:09:37;;;;;;;13.50;12.30;;;13.90;99.90;;;14.90;78.13;97707.59;5161473;28;20226;-62
2023/05/16 09:12:10;;;;;;;13.38;12.07;;;14.00;99.90;;;14.73;78.24;97707.81;5161297;28;20226;-63
2023/05/16 09:14:44;;;;;;;11.35;10.38;;;13.90;99.90;;;14.74;78.75;97706.13;5163381;28;20638;-62
2023/05/16 09:17:17;;;;;;;12.45;11.35;;;14.00;99.90;;;14.67;77.80;97706.72;5162168;28;20234;-63
2023/05/16 09:19:57;;;;;;;13.10;11.85;;;13.90;99.90;;;14.76;78.46;97705.34;5158624;28;20227;-63
2023/05/16 09:22:31;;;;;;;13.02;11.82;;;13.90;99.90;;;14.94;76.49;97706.91;5161217;28;20254;-63
2023/05/16 09:25:07;;;;;;;13.30;12.10;;;14.00;99.90;;;14.81;76.77;97718.41;5162139;28;20480;-62
2023/05/16 09:27:53;;;;;;;13.13;12.02;;;14.00;99.90;;;14.75;76.62;97720.75;5159215;28;20227;-63
2023/05/16 09:30:30;;;;;;;15.95;14.48;;;13.90;99.90;;;14.43;77.90;97710.94;5165935;28;20282;-63
2023/05/16 09:33:06;;;;;;;14.60;13.30;;;13.70;99.90;;;14.42;78.40;97714.31;5161886;28;20230;-63
2023/05/16 09:35:39;;;;;;;13.75;12.45;;;13.60;99.90;;;14.54;78.31;97718.22;5161039;28;20226;-63
2023/05/16 09:38:18;;;;;;;14.80;13.50;;;13.60;99.90;;;14.53;77.99;97719.03;5159796;28;20274;-63
2023/05/16 09:40:52;;;;;;;14.70;13.40;;;13.60;99.90;;;14.51;78.87;97718.09;5160912;28;20755;-62
2023/05/16 09:43:26;;;;;;;13.18;11.98;;;13.70;99.90;;;14.70;78.51;97720.56;5161612;28;20222;-63
2023/05/16 09:46:00;;;;;;;12.85;11.75;;;13.80;99.90;;;14.60;78.54;97724.47;5164838;28;20280;-63
2023/05/16 09:48:33;;;;;;;12.40;11.27;;;13.70;99.90;;;14.51;77.60;97723.22;5160827;28;20274;-62
2023/05/16 09:51:06;;;;;;;13.90;12.50;;;13.70;99.90;;;14.53;77.89;97731.88;5160590;28;20285;-63
2023/05/16 09:53:40;;;;;;;12.60;11.50;;;13.60;99.90;;;14.64;77.29;97735.75;5161401;28;20231;-62
2023/05/16 09:56:17;;;;;;;11.85;10.75;;;13.70;99.90;;;14.59;78.07;97732.13;5160912;28;20313;-62
2023/05/16 09:58:52;;;;;;;11.50;10.50;;;13.70;99.90;;;14.65;78.28;97727.25;5159150;28;20939;-63
2023/05/16 10:01:26;;;;;;;10.45;9.45;;;13.80;99.90;;;14.66;78.10;97723.84;5161577;28;20598;-63
2023/05/16 10:03:59;;;;;;;11.20;10.20;;;13.80;99.90;;;14.82;77.28;97726.19;5161419;28;20639;-63
2023/05/16 10:06:33;;;;;;;11.77;10.77;;;13.90;99.90;;;14.83;74.70;97737.38;5161578;28;20227;-63
2023/05/16 10:09:06;;;;;;;10.68;9.75;;;13.90;99.90;;;14.75;75.92;97726.78;5157983;28;20311;-63
2023/05/16 10:11:42;;;;;;;10.85;9.93;;;13.80;99.90;;;14.79;75.26;97725.19;5162324;28;20301;-64
2023/05/16 10:14:18;;;;;;;10.18;9.27;;;13.90;99.90;;;14.80;75.83;97720.09;5159985;28;20305;-63
2023/05/16 10:16:52;;;;;;;10.10;9.27;;;13.90;99.90;;;14.76;75.86;97722.50;5160019;28;20241;-64
2023/05/16 10:19:26;;;;;;;11.32;10.30;;;13.80;99.90;;;14.99;74.58;97725.94;5157600;28;20285;-62
2023/05/16 10:22:05;;;;;;;13.25;12.10;;;13.80;99.90;;;14.63;75.77;97734.03;5158758;28;20231;-63
2023/05/16 10:24:47;;;;;;;12.75;11.55;;;13.80;99.90;;;14.68;76.60;97740.22;5155806;28;20218;-63
2023/05/16 10:27:21;;;;;;;10.40;9.50;;;13.80;99.90;;;14.65;77.24;97737.53;5149429;28;20285;-61
2023/05/16 10:29:57;;;;;;;11.82;10.82;;;13.70;99.90;;;14.67;76.77;97741.03;5161805;28;20234;-62
2023/05/16 10:32:30;;;;;;;13.07;11.93;;;13.70;99.90;;;14.73;77.23;97741.25;5157956;28;20226;-63
2023/05/16 10:35:04;;;;;;;12.55;11.32;;;13.80;99.90;;;14.82;76.12;97740.72;5159302;28;20305;-63
2023/05/16 10:37:38;;;;;;;12.48;11.30;;;13.90;99.90;;;14.93;73.92;97743.72;5161023;28;20222;-63
2023/05/16 10:40:12;;;;;;;13.18;11.98;;;14.00;99.90;;;14.74;75.36;97742.16;5159949;28;20227;-63
2023/05/16 10:42:56;;;;;;;11.93;10.88;;;13.80;99.90;;;14.81;75.22;97739.88;5160081;28;20226;-63
2023/05/16 10:45:30;;;;;;;11.93;10.93;;;13.90;99.90;;;14.82;75.27;97741.63;5160586;28;20293;-63